createdAt,value
2023-05-09T00:00:26.601Z,11.00
2023-05-09T00:02:54.541Z,9.50
2023-05-09T00:05:22.583Z,10.25
2023-05-09T00:07:50.772Z,9.50
2023-05-09T00:10:20.075Z,11.00
2023-05-09T00:12:49.523Z,9.25
2023-05-09T00:15:19.090Z,10.00
2023-05-09T00:17:47.289Z,11.75
2023-05-09T00:20:15.589Z,9.25
2023-05-09T00:22:43.490Z,11.50
2023-05-09T00:25:12.186Z,11.00
2023-05-09T00:27:43.059Z,10.25
2023-05-09T00:30:11.291Z,11.00
2023-05-09T00:32:40.254Z,11.50
2023-05-09T00:37:53.045Z,11.75
2023-05-09T00:40:21.062Z,10.25
2023-05-09T00:42:50.776Z,11.25
2023-05-09T00:45:18.713Z,11.75
2023-05-09T00:47:46.634Z,10.50
2023-05-09T00:50:14.873Z,11.50
2023-05-09T00:52:43.116Z,10.00
2023-05-09T00:55:11.254Z,10.00
2023-05-09T00:57:39.225Z,10.25
2023-05-09T01:02:54.976Z,9.75
2023-05-09T01:05:23.462Z,10.50
2023-05-09T01:07:53.866Z,9.50
2023-05-09T01:10:24.398Z,9.50
2023-05-09T01:12:56.136Z,11.00
2023-05-09T01:15:27.925Z,11.75
2023-05-09T01:17:59.848Z,10.25
2023-05-09T01:20:31.348Z,12.00
2023-05-09T01:23:05.313Z,12.25
2023-05-09T01:25:55.497Z,12.25
2023-05-09T01:28:44.729Z,12.25
2023-05-09T01:31:14.059Z,10.00
2023-05-09T01:33:41.998Z,10.50
2023-05-09T01:36:13.441Z,12.00
2023-05-09T01:38:41.835Z,12.00
2023-05-09T01:41:09.896Z,12.25
2023-05-09T01:43:37.821Z,10.50
2023-05-09T01:46:06.044Z,10.50
2023-05-09T01:48:36.201Z,11.00
2023-05-09T01:51:05.517Z,12.75
2023-05-09T01:53:33.414Z,12.00
2023-05-09T01:56:01.863Z,11.50
2023-05-09T01:58:30.137Z,11.25
2023-05-09T02:00:58.211Z,12.25
2023-05-09T02:03:26.540Z,12.75
2023-05-09T02:05:56.149Z,11.00
2023-05-09T02:08:24.179Z,12.00
2023-05-09T02:10:53.128Z,11.25
2023-05-09T02:13:21.465Z,11.50
2023-05-09T02:15:49.535Z,10.50
2023-05-09T02:18:17.913Z,12.75
2023-05-09T02:20:46.400Z,12.25
2023-05-09T02:23:16.072Z,11.00
2023-05-09T02:25:43.967Z,11.50
2023-05-09T02:28:11.925Z,12.00
2023-05-09T02:30:41.709Z,10.50
2023-05-09T02:33:10.015Z,12.00
2023-05-09T02:38:24.521Z,11.00
2023-05-09T02:40:52.773Z,11.50
2023-05-09T02:43:21.047Z,13.25
2023-05-09T02:45:49.360Z,14.25
2023-05-09T02:48:17.319Z,12.50
2023-05-09T02:50:45.959Z,11.25
2023-05-09T02:53:13.886Z,12.00
2023-05-09T02:55:43.467Z,11.50
2023-05-09T02:58:14.633Z,11.25
2023-05-09T03:00:43.080Z,14.25
2023-05-09T03:03:11.303Z,14.25
2023-05-09T03:05:39.627Z,11.75
2023-05-09T03:08:07.574Z,12.50
2023-05-09T03:10:35.624Z,11.50
2023-05-09T03:13:05.042Z,12.00
2023-05-09T03:15:33.288Z,12.50
2023-05-09T03:18:01.239Z,13.50
2023-05-09T03:20:29.229Z,13.75
2023-05-09T03:22:57.167Z,12.25
2023-05-09T03:25:26.371Z,12.50
2023-05-09T03:27:54.330Z,12.00
2023-05-09T03:30:23.649Z,12.00
2023-05-09T03:32:51.571Z,11.50
2023-05-09T03:35:19.966Z,11.75
2023-05-09T03:37:47.875Z,10.75
2023-05-09T03:40:15.882Z,14.50
2023-05-09T03:42:43.749Z,13.25
2023-05-09T03:45:13.071Z,11.50
2023-05-09T03:47:42.494Z,13.25
2023-05-09T03:50:11.646Z,10.50
2023-05-09T03:52:39.898Z,12.25
2023-05-09T03:55:09.066Z,12.75
2023-05-09T03:57:37.055Z,13.25
2023-05-09T04:00:08.321Z,12.25
2023-05-09T04:02:36.322Z,12.00
2023-05-09T04:05:06.390Z,13.25
2023-05-09T04:07:34.532Z,13.00
2023-05-09T04:10:02.416Z,12.75
2023-05-09T04:12:30.453Z,11.75
2023-05-09T04:14:58.692Z,13.50
2023-05-09T04:17:26.692Z,13.25
2023-05-09T04:19:54.640Z,15.25
2023-05-09T04:22:23.981Z,13.50
2023-05-09T04:24:52.225Z,15.25
2023-05-09T04:27:20.148Z,15.25
2023-05-09T04:29:49.405Z,13.75
2023-05-09T04:32:17.600Z,13.25
2023-05-09T04:34:45.752Z,14.25
2023-05-09T04:37:13.884Z,13.25
2023-05-09T04:39:43.463Z,12.50
2023-05-09T04:42:12.702Z,13.50
2023-05-09T04:44:40.587Z,12.50
2023-05-09T04:47:08.509Z,12.50
2023-05-09T04:49:36.417Z,13.00
2023-05-09T04:52:04.536Z,13.00
2023-05-09T04:54:32.539Z,12.75
2023-05-09T04:57:13.799Z,12.50
2023-05-09T04:59:44.940Z,15.25
2023-05-09T05:02:13.110Z,13.50
2023-05-09T05:04:41.305Z,14.25
2023-05-09T05:07:09.492Z,14.25
2023-05-09T05:09:37.999Z,13.00
2023-05-09T05:12:09.736Z,13.75
2023-05-09T05:14:38.260Z,13.00
2023-05-09T05:17:06.535Z,15.50
2023-05-09T05:19:34.676Z,13.50
2023-05-09T05:22:03.051Z,14.25
2023-05-09T05:24:30.982Z,15.00
2023-05-09T05:26:58.921Z,12.50
2023-05-09T05:29:28.664Z,13.50
2023-05-09T05:31:56.703Z,14.75
2023-05-09T05:34:24.845Z,13.00
2023-05-09T05:36:52.745Z,13.50
2023-05-09T05:39:23.454Z,15.00
2023-05-09T05:41:56.063Z,14.00
2023-05-09T05:44:25.209Z,16.00
2023-05-09T05:46:55.972Z,13.25
2023-05-09T05:49:25.177Z,14.00
2023-05-09T05:51:53.143Z,14.00
2023-05-09T05:54:21.460Z,13.75
2023-05-09T05:56:50.689Z,12.50
2023-05-09T05:59:18.627Z,13.75
2023-05-09T06:01:46.888Z,13.00
2023-05-09T06:04:16.929Z,16.00
2023-05-09T06:06:44.856Z,16.00
2023-05-09T06:09:12.763Z,13.75
2023-05-09T06:11:43.126Z,15.50
2023-05-09T06:14:11.832Z,14.00
2023-05-09T06:16:40.214Z,11.50
2023-05-09T06:19:08.178Z,15.50
2023-05-09T06:21:37.465Z,14.25
2023-05-09T06:24:14.145Z,13.00
2023-05-09T06:26:45.047Z,12.50
2023-05-09T06:29:14.483Z,12.50
2023-05-09T06:31:42.407Z,11.75
2023-05-09T06:34:10.737Z,13.75
2023-05-09T06:36:40.751Z,14.25
2023-05-09T06:39:08.660Z,13.50
2023-05-09T06:41:36.536Z,15.00
2023-05-09T06:44:04.699Z,13.00
2023-05-09T06:46:32.653Z,14.25
2023-05-09T06:49:01.912Z,13.00
2023-05-09T06:51:30.177Z,12.25
2023-05-09T06:53:59.523Z,11.50
2023-05-09T06:56:27.445Z,12.50
2023-05-09T06:58:55.840Z,15.50
2023-05-09T07:01:24.049Z,12.75
2023-05-09T07:03:52.152Z,15.25
2023-05-09T07:06:20.188Z,12.25
2023-05-09T07:08:48.678Z,14.00
2023-05-09T07:11:18.209Z,12.25
2023-05-09T07:13:46.139Z,15.50
2023-05-09T07:16:14.042Z,12.00
2023-05-09T07:18:42.291Z,14.25
2023-05-09T07:21:10.550Z,13.75
2023-05-09T07:23:38.472Z,12.00
2023-05-09T07:26:06.395Z,14.75
2023-05-09T07:28:36.002Z,13.75
2023-05-09T07:31:04.692Z,12.50
2023-05-09T07:33:32.766Z,12.75
2023-05-09T07:36:01.158Z,13.75
2023-05-09T07:38:29.348Z,15.25
2023-05-09T07:40:57.264Z,12.25
2023-05-09T07:43:25.196Z,13.00
2023-05-09T07:45:54.576Z,13.25
2023-05-09T07:48:23.087Z,12.25
2023-05-09T07:50:51.048Z,14.25
2023-05-09T07:53:18.956Z,12.50
2023-05-09T07:55:48.313Z,11.50
2023-05-09T07:58:17.509Z,11.00
2023-05-09T08:00:45.497Z,11.00
2023-05-09T08:03:15.430Z,13.25
2023-05-09T08:05:43.730Z,10.50
2023-05-09T08:08:11.910Z,12.00
2023-05-09T08:10:39.828Z,11.50
2023-05-09T08:13:07.794Z,12.00
2023-05-09T08:15:35.741Z,10.50
2023-05-09T08:18:03.691Z,11.00
2023-05-09T08:20:34.513Z,12.75
2023-05-09T08:23:02.713Z,12.25
2023-05-09T08:25:30.882Z,11.50
2023-05-09T08:27:59.149Z,11.25
2023-05-09T08:30:29.223Z,11.50
2023-05-09T08:32:57.250Z,13.75
2023-05-09T08:35:25.212Z,13.00
2023-05-09T08:37:54.871Z,11.50
2023-05-09T08:40:22.844Z,11.50
2023-05-09T08:42:50.846Z,10.25
2023-05-09T08:45:18.900Z,12.25
2023-05-09T08:47:47.248Z,10.75
2023-05-09T08:50:17.479Z,9.50
2023-05-09T08:52:45.813Z,10.25
2023-05-09T08:55:15.268Z,9.50
2023-05-09T08:57:43.668Z,9.75
2023-05-09T09:00:15.972Z,11.00
2023-05-09T09:02:46.168Z,11.00
2023-05-09T09:05:34.140Z,10.75
2023-05-09T09:08:02.239Z,9.50
2023-05-09T09:10:32.172Z,10.00
2023-05-09T09:13:00.669Z,9.50
2023-05-09T09:15:31.674Z,9.50
2023-05-09T09:18:00.356Z,10.50
2023-05-09T09:20:29.108Z,8.50
2023-05-09T09:22:59.109Z,10.50
2023-05-09T09:25:27.153Z,10.00
2023-05-09T09:27:56.938Z,9.25
2023-05-09T09:30:25.478Z,10.00
2023-05-09T09:32:53.489Z,8.25
2023-05-09T09:37:50.067Z,9.75
2023-05-09T09:40:18.330Z,9.00
2023-05-09T09:42:47.295Z,10.75
2023-05-09T09:45:18.469Z,10.50
2023-05-09T09:47:47.850Z,8.50
2023-05-09T09:50:17.413Z,8.00
2023-05-09T09:52:50.495Z,8.00
2023-05-09T09:55:19.166Z,8.50
2023-05-09T09:57:48.415Z,8.50
2023-05-09T10:02:56.375Z,9.00
2023-05-09T10:05:25.013Z,9.00
2023-05-09T10:07:55.222Z,9.00
2023-05-09T10:10:23.576Z,9.50
2023-05-09T10:12:52.061Z,9.25
2023-05-09T10:15:21.728Z,8.50
2023-05-09T10:17:51.217Z,10.00
2023-05-09T10:20:20.777Z,10.00
2023-05-09T10:22:48.665Z,7.75
2023-05-09T10:25:19.072Z,10.50
2023-05-09T10:27:47.931Z,8.50
2023-05-09T10:30:18.677Z,9.25
2023-05-09T10:32:50.527Z,7.50
2023-05-09T10:35:20.915Z,8.50
2023-05-09T10:37:49.190Z,9.00
2023-05-09T10:40:17.135Z,9.75
2023-05-09T10:42:45.079Z,8.75
2023-05-09T10:45:13.746Z,7.50
2023-05-09T10:47:42.368Z,6.75
2023-05-09T10:50:12.243Z,9.75
2023-05-09T10:53:08.967Z,7.50
2023-05-09T10:55:40.938Z,9.50
2023-05-09T10:58:22.767Z,8.25
2023-05-09T11:00:51.073Z,7.50
2023-05-09T11:03:19.993Z,6.75
2023-05-09T11:05:48.910Z,7.25
2023-05-09T11:08:22.355Z,7.00
2023-05-09T11:10:50.312Z,8.00
2023-05-09T11:13:22.494Z,7.50
2023-05-09T11:16:12.549Z,8.50
2023-05-09T11:18:53.589Z,9.00
2023-05-09T11:21:22.167Z,7.50
2023-05-09T11:23:53.826Z,8.50
2023-05-09T11:26:23.660Z,8.25
2023-05-09T11:28:56.852Z,6.50
2023-05-09T11:31:25.179Z,7.50
2023-05-09T11:33:58.306Z,6.75
2023-05-09T11:36:31.905Z,6.50
2023-05-09T11:39:06.412Z,8.25
2023-05-09T11:41:40.866Z,8.00
2023-05-09T11:44:18.512Z,8.50
2023-05-09T11:46:46.507Z,7.00
2023-05-09T11:49:14.843Z,9.00
2023-05-09T11:51:42.920Z,6.50
2023-05-09T11:54:17.139Z,7.25
2023-05-09T11:56:45.007Z,7.00
2023-05-09T11:59:15.811Z,7.25
2023-05-09T12:01:43.848Z,6.75
2023-05-09T12:04:11.842Z,6.50
2023-05-09T12:06:40.201Z,6.50
2023-05-09T12:09:10.296Z,6.50
2023-05-09T12:11:39.784Z,7.00
2023-05-09T12:14:07.757Z,6.50
2023-05-09T12:16:35.762Z,6.50
2023-05-09T12:19:05.155Z,6.50
2023-05-09T12:21:33.696Z,6.25
2023-05-09T12:24:01.720Z,7.50
2023-05-09T12:26:29.650Z,6.25
2023-05-09T12:28:59.370Z,6.00
2023-05-09T12:31:27.322Z,6.75
2023-05-09T12:33:55.429Z,6.50
2023-05-09T12:36:24.604Z,6.25
2023-05-09T12:38:55.486Z,6.00
2023-05-09T12:41:36.843Z,7.50
2023-05-09T12:44:09.082Z,5.75
2023-05-09T12:46:37.623Z,6.25
2023-05-09T12:49:05.892Z,5.75
2023-05-09T12:51:33.808Z,6.50
2023-05-09T12:54:04.471Z,5.50
2023-05-09T12:56:35.011Z,7.00
2023-05-09T12:59:03.093Z,7.00
2023-05-09T13:01:32.460Z,5.50
2023-05-09T13:04:04.412Z,6.00
2023-05-09T13:06:32.421Z,5.00
2023-05-09T13:09:01.515Z,6.00
2023-05-09T13:11:29.826Z,5.50
2023-05-09T13:13:58.457Z,6.25
2023-05-09T13:16:26.969Z,5.75
2023-05-09T13:18:56.341Z,5.50
2023-05-09T13:21:24.336Z,5.75
2023-05-09T13:23:52.590Z,6.75
2023-05-09T13:26:21.140Z,5.75
2023-05-09T13:28:49.338Z,6.00
2023-05-09T13:31:17.481Z,5.25
2023-05-09T13:33:45.882Z,5.75
2023-05-09T13:36:15.202Z,5.75
2023-05-09T13:38:43.140Z,6.50
2023-05-09T13:41:11.134Z,5.50
2023-05-09T13:43:40.329Z,6.50
2023-05-09T13:46:08.285Z,5.50
2023-05-09T13:48:36.194Z,6.50
2023-05-09T13:51:06.241Z,5.50
2023-05-09T13:53:38.130Z,6.25
2023-05-09T13:56:09.278Z,7.00
2023-05-09T13:58:37.249Z,5.50
2023-05-09T14:01:05.369Z,5.50
2023-05-09T14:03:33.494Z,6.00
2023-05-09T14:06:02.142Z,6.00
2023-05-09T14:08:30.341Z,6.25
2023-05-09T14:10:59.674Z,6.25
2023-05-09T14:13:28.213Z,4.75
2023-05-09T14:15:56.515Z,6.00
2023-05-09T14:18:24.800Z,5.50
2023-05-09T14:20:52.760Z,8.00
2023-05-09T14:23:21.829Z,4.50
2023-05-09T14:25:50.025Z,5.00
2023-05-09T14:28:19.348Z,6.75
2023-05-09T14:30:47.255Z,6.00
2023-05-09T14:33:15.621Z,5.50
2023-05-09T14:35:43.544Z,5.75
2023-05-09T14:38:13.100Z,5.50
2023-05-09T14:40:41.060Z,5.75
2023-05-09T14:43:09.535Z,6.50
2023-05-09T14:45:39.224Z,6.50
2023-05-09T14:48:07.761Z,5.25
2023-05-09T14:50:35.778Z,6.50
2023-05-09T14:53:03.857Z,5.00
2023-05-09T14:55:32.521Z,5.50
2023-05-09T14:58:00.860Z,5.75
2023-05-09T15:02:58.031Z,5.75
2023-05-09T15:05:26.126Z,5.50
2023-05-09T15:07:54.023Z,5.25
2023-05-09T15:10:22.012Z,5.50
2023-05-09T15:12:49.963Z,5.50
2023-05-09T15:15:19.011Z,5.75
2023-05-09T15:17:47.397Z,6.75
2023-05-09T15:20:17.619Z,5.00
2023-05-09T15:22:45.963Z,5.50
2023-05-09T15:25:14.000Z,6.25
2023-05-09T15:27:42.173Z,5.00
2023-05-09T15:30:11.052Z,5.50
2023-05-09T15:32:39.803Z,6.25
2023-05-09T15:37:49.665Z,5.25
2023-05-09T15:40:17.773Z,4.50
2023-05-09T15:42:48.248Z,5.50
2023-05-09T15:45:16.823Z,6.75
2023-05-09T15:47:44.893Z,5.00
2023-05-09T15:50:13.186Z,5.00
2023-05-09T15:52:41.276Z,6.00
2023-05-09T15:55:12.905Z,4.75
2023-05-09T15:57:40.908Z,4.75
2023-05-09T16:00:12.663Z,4.50
2023-05-09T16:02:42.098Z,6.00
2023-05-09T16:05:10.961Z,5.50
2023-05-09T16:07:39.080Z,5.50
2023-05-09T16:10:08.112Z,4.25
2023-05-09T16:12:37.443Z,5.50
2023-05-09T16:15:08.888Z,5.50
2023-05-09T16:17:36.801Z,4.50
2023-05-09T16:20:05.840Z,5.50
2023-05-09T16:22:33.822Z,5.00
2023-05-09T16:25:02.074Z,5.25
2023-05-09T16:27:30.000Z,5.50
2023-05-09T16:29:59.358Z,5.75
2023-05-09T16:32:27.689Z,4.75
2023-05-09T16:37:50.242Z,6.00
2023-05-09T16:40:19.284Z,5.25
2023-05-09T16:42:47.469Z,5.25
2023-05-09T16:45:17.082Z,5.50
2023-05-09T16:47:45.053Z,4.50
2023-05-09T16:50:13.063Z,5.00
2023-05-09T16:52:41.232Z,4.25
2023-05-09T16:55:10.107Z,10.75
2023-05-09T16:57:38.031Z,8.25
2023-05-09T17:03:01.640Z,9.00
2023-05-09T17:05:29.723Z,10.00
2023-05-09T17:08:00.061Z,11.25
2023-05-09T17:10:29.733Z,12.00
2023-05-09T17:12:58.321Z,10.75
2023-05-09T17:15:27.101Z,9.50
2023-05-09T17:17:56.579Z,11.25
2023-05-09T17:20:25.709Z,10.50
2023-05-09T17:22:53.682Z,11.25
2023-05-09T17:25:21.910Z,10.25
2023-05-09T17:27:50.469Z,10.00
2023-05-09T17:30:20.576Z,11.00
2023-05-09T17:33:04.446Z,10.00
2023-05-09T17:35:37.124Z,10.00
2023-05-09T17:38:06.544Z,11.25
2023-05-09T17:40:34.513Z,9.75
2023-05-09T17:43:02.396Z,10.50
2023-05-09T17:45:30.588Z,8.75
2023-05-09T17:47:59.769Z,9.50
2023-05-09T17:50:27.752Z,8.50
2023-05-09T17:52:57.205Z,9.25
2023-05-09T17:55:25.469Z,7.25
2023-05-09T17:57:54.083Z,8.25
2023-05-09T18:00:22.649Z,8.00
2023-05-09T18:02:51.627Z,7.50
2023-05-09T18:05:19.599Z,7.50
2023-05-09T18:07:50.654Z,6.25
2023-05-09T18:10:20.031Z,7.50
2023-05-09T18:12:48.164Z,7.25
2023-05-09T18:15:16.486Z,10.50
2023-05-09T18:17:48.178Z,12.00
2023-05-09T18:20:16.383Z,9.25
2023-05-09T18:22:44.373Z,10.25
2023-05-09T18:25:12.321Z,9.25
2023-05-09T18:27:41.665Z,11.50
2023-05-09T18:30:13.196Z,11.25
2023-05-09T18:32:41.720Z,11.25
2023-05-09T18:35:10.413Z,11.00
2023-05-09T18:37:38.297Z,10.25
2023-05-09T18:40:07.447Z,9.50
2023-05-09T18:42:38.389Z,12.00
2023-05-09T18:45:14.094Z,11.00
2023-05-09T18:47:42.429Z,11.50
2023-05-09T18:50:13.683Z,8.25
2023-05-09T18:52:47.228Z,9.75
2023-05-09T18:55:15.409Z,8.75
2023-05-09T18:57:43.354Z,8.25
2023-05-09T19:03:01.105Z,14.75
2023-05-09T19:05:29.353Z,11.75
2023-05-09T19:07:57.585Z,11.00
2023-05-09T19:10:25.787Z,10.75
2023-05-09T19:12:53.861Z,14.00
2023-05-09T19:15:23.252Z,16.00
2023-05-09T19:17:51.678Z,14.75
2023-05-09T19:20:21.206Z,16.75
2023-05-09T19:22:51.411Z,14.50
2023-05-09T19:25:19.897Z,17.00
2023-05-09T19:27:48.482Z,12.25
2023-05-09T19:30:17.045Z,13.25
2023-05-09T19:32:45.314Z,14.00
2023-05-09T19:35:13.276Z,20.25
2023-05-09T19:37:43.017Z,24.50
2023-05-09T19:40:11.780Z,18.75
2023-05-09T19:42:41.971Z,20.00
2023-05-09T19:45:11.115Z,21.25
2023-05-09T19:47:39.045Z,22.50
2023-05-09T19:50:08.353Z,26.25
2023-05-09T19:52:37.157Z,26.50
2023-05-09T19:55:07.361Z,32.75
2023-05-09T19:57:35.260Z,27.75
2023-05-09T20:00:03.516Z,27.50
2023-05-09T20:02:31.490Z,23.75
2023-05-09T20:04:59.488Z,29.50
2023-05-09T20:07:27.679Z,24.75
2023-05-09T20:09:56.971Z,22.75
2023-05-09T20:12:27.956Z,25.75
2023-05-09T20:14:57.965Z,27.00
2023-05-09T20:17:25.849Z,20.75
2023-05-09T20:19:54.081Z,22.50
2023-05-09T20:22:22.070Z,22.00
2023-05-09T20:24:49.935Z,22.50
2023-05-09T20:27:17.860Z,20.75
2023-05-09T20:29:47.429Z,20.00
2023-05-09T20:32:15.351Z,17.50
2023-05-09T20:34:43.253Z,20.00
2023-05-09T20:37:12.016Z,18.50
2023-05-09T20:39:40.118Z,16.75
2023-05-09T20:42:08.006Z,16.25
2023-05-09T20:44:39.193Z,15.00
2023-05-09T20:47:08.496Z,12.50
2023-05-09T20:49:36.597Z,13.25
2023-05-09T20:52:04.810Z,15.25
2023-05-09T20:54:33.444Z,14.50
2023-05-09T20:57:01.611Z,13.50
2023-05-09T20:59:29.666Z,12.00
2023-05-09T21:01:57.639Z,11.00
2023-05-09T21:04:26.975Z,13.25
2023-05-09T21:06:54.934Z,13.00
2023-05-09T21:09:23.146Z,20.00
2023-05-09T21:11:51.035Z,22.50
2023-05-09T21:14:19.247Z,28.50
2023-05-09T21:16:47.544Z,26.25
2023-05-09T21:19:15.771Z,32.25
2023-05-09T21:21:45.036Z,24.75
2023-05-09T21:24:12.929Z,23.00
2023-05-09T21:26:41.054Z,28.00
2023-05-09T21:29:09.280Z,24.00
2023-05-09T21:31:37.588Z,30.75
2023-05-09T21:34:10.421Z,29.00
2023-05-09T21:36:38.682Z,32.25
2023-05-09T21:39:08.889Z,24.25
2023-05-09T21:41:36.953Z,21.50
2023-05-09T21:44:05.244Z,27.75
2023-05-09T21:46:33.920Z,22.75
2023-05-09T21:49:02.070Z,24.50
2023-05-09T21:51:31.092Z,26.25
2023-05-09T21:53:58.975Z,19.75
2023-05-09T21:56:28.424Z,22.00
2023-05-09T21:58:56.699Z,20.75
2023-05-09T22:01:24.666Z,26.75
2023-05-09T22:03:52.692Z,20.50
2023-05-09T22:06:21.284Z,25.00
2023-05-09T22:08:51.104Z,23.00
2023-05-09T22:11:19.209Z,27.50
2023-05-09T22:13:48.651Z,18.75
2023-05-09T22:16:17.506Z,24.25
2023-05-09T22:18:46.388Z,25.25
2023-05-09T22:21:14.416Z,23.50
2023-05-09T22:23:42.354Z,22.25
2023-05-09T22:26:10.275Z,24.00
2023-05-09T22:28:38.565Z,20.25
2023-05-09T22:31:08.204Z,19.00
2023-05-09T22:33:36.298Z,19.25
2023-05-09T22:36:04.877Z,19.00
2023-05-09T22:38:33.056Z,17.25
2023-05-09T22:41:00.966Z,19.25
2023-05-09T22:43:33.835Z,18.00
2023-05-09T22:46:08.513Z,16.50
2023-05-09T22:48:37.155Z,14.50
2023-05-09T22:51:05.377Z,15.50
2023-05-09T22:53:33.831Z,13.50
2023-05-09T22:56:01.806Z,16.00
2023-05-09T22:58:30.022Z,12.00
2023-05-09T23:00:57.953Z,13.25
2023-05-09T23:03:27.479Z,14.25
2023-05-09T23:05:55.451Z,14.25
2023-05-09T23:08:23.655Z,12.75
2023-05-09T23:10:51.536Z,11.50
2023-05-09T23:13:19.493Z,10.75
2023-05-09T23:15:48.204Z,12.00
2023-05-09T23:18:16.428Z,10.75
2023-05-09T23:20:45.723Z,10.75
2023-05-09T23:23:13.861Z,10.25
2023-05-09T23:25:41.894Z,9.50
2023-05-09T23:28:10.073Z,10.50
2023-05-09T23:30:38.036Z,9.25
2023-05-09T23:33:05.995Z,11.25
2023-05-09T23:35:34.005Z,8.50
2023-05-09T23:38:04.409Z,9.25
2023-05-09T23:40:32.372Z,10.75
2023-05-09T23:43:00.253Z,9.75
2023-05-09T23:45:28.159Z,8.25
2023-05-09T23:47:57.123Z,10.75
2023-05-09T23:50:25.041Z,9.25
2023-05-09T23:52:52.958Z,9.00
2023-05-09T23:55:22.298Z,9.25
2023-05-09T23:57:50.643Z,11.00
